Time;durP1;ratioP1;P1;durP2;ratioP2;P2;SDS_P1;SDS_P2;PMS_P1;PMS_P2;Temp;Humidity;BMP_temperature;BMP_pressure;BME280_temperature;BME280_humidity;BME280_pressure;Samples;Min_cycle;Max_cycle;Signal;HPM_P1;HPM_P2
2021/05/05 00:03:37;;;;;;;2.90;2.00;;;;;;;13.61;49.81;97460.43;262612;1098;22758;-74
2021/05/05 00:08:40;;;;;;;3.43;1.70;;;;;;;13.58;49.65;97450.36;262210;1093;22866;-74
2021/05/05 00:13:43;;;;;;;2.30;1.80;;;;;;;13.57;50.12;97448.78;262347;1093;22758;-75
2021/05/05 00:18:52;;;;;;;3.10;1.80;;;;;;;13.55;50.03;97442.97;262184;1093;22758;-75
2021/05/05 00:23:55;;;;;;;2.63;2.03;;;;;;;13.52;49.87;97434.44;262800;1098;22766;-74
2021/05/05 00:28:58;;;;;;;2.30;1.90;;;;;;;13.48;50.08;97441.63;262100;1093;24416;-75
2021/05/05 00:34:01;;;;;;;2.13;1.70;;;;;;;13.47;50.19;97434.70;262509;1098;22796;-75
2021/05/05 00:39:11;;;;;;;2.60;2.10;;;;;;;13.48;50.07;97428.17;262780;1093;22724;-74
2021/05/05 00:44:19;;;;;;;2.00;1.60;;;;;;;13.49;49.93;97426.28;262228;1093;25861;-75
2021/05/05 00:49:22;;;;;;;3.30;1.87;;;;;;;13.47;49.93;97412.38;262187;1093;22806;-73
2021/05/05 00:54:26;;;;;;;4.15;2.20;;;;;;;13.49;50.01;97423.59;262093;1093;25826;-74
2021/05/05 00:59:28;;;;;;;3.15;2.10;;;;;;;13.46;49.91;97419.67;262227;1093;26031;-75
2021/05/05 01:04:32;;;;;;;2.50;1.90;;;;;;;13.49;50.17;97420.91;262515;1093;22724;-74
2021/05/05 01:09:43;;;;;;;2.00;1.80;;;;;;;13.46;49.99;97416.20;262394;1092;26347;-75
2021/05/05 01:14:49;;;;;;;;;;;;;;;13.44;49.91;97402.30;262246;1098;22823;-75
2021/05/05 01:20:06;;;;;;;3.33;1.70;;;;;;;13.42;50.00;97410.71;262280;1098;21576;-75
2021/05/05 01:25:28;;;;;;;2.40;1.50;;;;;;;13.38;50.01;97417.89;262129;1098;24537;-74
2021/05/05 01:30:33;;;;;;;2.27;1.70;;;;;;;13.30;49.73;97414.17;262873;1093;26197;-74
2021/05/05 01:35:37;;;;;;;3.67;1.63;;;;;;;13.27;49.77;97408.70;262558;1093;22737;-74
2021/05/05 01:40:43;;;;;;;4.05;1.50;;;;;;;13.16;50.00;97414.55;262118;1093;22823;-74
2021/05/05 01:45:45;;;;;;;2.60;1.70;;;;;;;13.04;50.16;97411.07;262443;1092;25899;-74
2021/05/05 01:51:01;;;;;;;4.40;1.60;;;;;;;12.94;50.45;97407.73;262300;1092;26082;-75
2021/05/05 01:56:05;;;;;;;1.73;1.40;;;;;;;12.89;50.38;97399.89;262313;1092;22835;-75
2021/05/05 02:01:08;;;;;;;2.05;1.40;;;;;;;12.91;50.44;97403.02;262249;1098;23516;-75
2021/05/05 02:06:14;;;;;;;2.07;1.50;;;;;;;12.92;50.64;97395.75;262356;1093;22848;-74
2021/05/05 02:11:37;;;;;;;2.35;1.40;;;;;;;12.90;50.50;97396.09;262322;1098;22786;-75
2021/05/05 02:16:40;;;;;;;2.00;1.25;;;;;;;12.88;50.66;97402.92;262815;1093;25496;-74
2021/05/05 02:21:53;;;;;;;1.97;1.40;;;;;;;12.82;51.07;97391.61;262650;1098;23657;-75
2021/05/05 02:27:16;;;;;;;2.85;1.50;;;;;;;12.77;51.17;97397.20;262397;1093;22845;-75
2021/05/05 02:32:26;;;;;;;2.10;1.30;;;;;;;12.69;51.47;97380.09;262447;1098;22740;-74
2021/05/05 02:37:44;;;;;;;2.40;1.60;;;;;;;12.60;51.68;97376.72;262628;1098;22945;-74
2021/05/05 02:42:48;;;;;;;1.90;1.50;;;;;;;12.49;52.25;97366.43;262277;1098;22920;-74
2021/05/05 02:47:53;;;;;;;1.70;1.40;;;;;;;12.39;52.39;97382.97;262534;1093;22767;-73
2021/05/05 02:52:56;;;;;;;1.60;1.50;;;;;;;12.32;52.83;97382.73;262253;1094;24129;-74
2021/05/05 02:57:58;;;;;;;3.63;1.57;;;;;;;12.25;53.19;97372.54;262473;1092;25970;-75
2021/05/05 03:03:02;;;;;;;3.77;1.87;;;;;;;12.22;53.53;97361.70;262486;1098;22772;-74
2021/05/05 03:08:05;;;;;;;3.43;2.00;;;;;;;12.19;53.94;97365.06;262340;1098;24131;-75
2021/05/05 03:13:08;;;;;;;5.20;2.00;;;;;;;12.19;54.09;97362.38;262310;1093;24377;-74
2021/05/05 03:18:12;;;;;;;3.13;1.70;;;;;;;12.24;54.38;97367.50;262738;1093;25839;-74
2021/05/05 03:23:15;;;;;;;1.60;1.50;;;;;;;12.29;54.32;97370.75;262402;1093;24144;-74
2021/05/05 03:28:19;;;;;;;2.60;1.50;;;;;;;12.36;54.44;97370.21;262668;1098;23860;-73
2021/05/05 03:33:23;;;;;;;2.60;1.70;;;;;;;12.42;54.27;97365.41;262513;1093;22738;-74
2021/05/05 03:38:29;;;;;;;3.60;1.60;;;;;;;12.46;54.41;97371.67;262394;1098;22774;-75
2021/05/05 03:43:45;;;;;;;1.70;1.40;;;;;;;12.55;53.61;97372.36;262194;1093;26201;-74
2021/05/05 03:48:48;;;;;;;1.20;1.10;;;;;;;12.66;53.78;97364.62;262463;1093;22742;-74
2021/05/05 03:53:58;;;;;;;1.70;1.30;;;;;;;12.76;53.41;97366.88;262614;1093;26350;-74
2021/05/05 03:59:00;;;;;;;1.20;1.10;;;;;;;12.83;53.35;97366.31;262615;1098;24404;-75
2021/05/05 04:04:04;;;;;;;1.85;1.70;;;;;;;12.88;53.21;97362.61;262512;1098;22833;-74
2021/05/05 04:09:07;;;;;;;2.37;1.70;;;;;;;12.88;53.04;97371.45;262112;1093;22761;-74
2021/05/05 04:14:12;;;;;;;2.35;1.70;;;;;;;12.89;53.08;97370.33;262479;1098;22913;-74
2021/05/05 04:19:33;;;;;;;2.20;1.43;;;;;;;12.87;53.19;97358.34;262388;1093;22788;-75
2021/05/05 04:24:54;;;;;;;2.05;1.60;;;;;;;12.84;53.30;97362.48;262195;1093;22823;-75
2021/05/05 04:30:05;;;;;;;3.97;1.90;;;;;;;12.83;53.36;97359.03;262178;1092;25970;-74
2021/05/05 04:35:09;;;;;;;24.30;3.90;;;;;;;12.83;53.61;97366.31;262477;1098;25314;-75
2021/05/05 04:40:12;;;;;;;3.35;2.00;;;;;;;12.82;53.98;97368.20;262326;1093;22991;-75
2021/05/05 04:45:15;;;;;;;2.70;2.00;;;;;;;12.84;53.59;97367.86;262570;1093;26060;-74
2021/05/05 04:50:30;;;;;;;2.73;2.40;;;;;;;12.85;53.95;97372.13;262244;1093;23445;-75
2021/05/05 04:55:47;;;;;;;3.15;2.50;;;;;;;12.90;54.02;97369.22;262376;1094;24409;-74
2021/05/05 05:00:49;;;;;;;3.90;2.70;;;;;;;13.05;54.27;97362.34;262202;1092;25964;-74
2021/05/05 05:05:53;;;;;;;3.90;2.75;;;;;;;13.20;54.50;97377.00;262294;1094;23005;-74
2021/05/05 05:10:57;;;;;;;4.30;2.80;;;;;;;13.30;54.35;97364.98;262451;1093;22781;-74
2021/05/05 05:16:00;;;;;;;4.45;2.70;;;;;;;13.34;54.14;97368.56;262399;1093;22731;-74
2021/05/05 05:21:17;;;;;;;4.87;2.30;;;;;;;13.31;53.43;97366.56;262478;1093;22724;-74
2021/05/05 05:26:33;;;;;;;3.17;2.03;;;;;;;13.34;53.39;97363.95;262474;1093;22823;-74
2021/05/05 05:31:50;;;;;;;3.00;1.80;;;;;;;13.41;53.01;97358.03;262557;1093;25874;-74
2021/05/05 05:37:04;;;;;;;3.45;1.90;;;;;;;13.45;53.04;97353.54;262722;1098;23207;-75
2021/05/05 05:42:08;;;;;;;3.70;2.07;;;;;;;13.45;53.61;97353.54;262566;1093;25973;-75
2021/05/05 05:47:12;;;;;;;4.65;2.45;;;;;;;13.45;53.81;97350.84;262570;1093;25844;-74
2021/05/05 05:52:19;;;;;;;2.77;2.13;;;;;;;13.49;53.73;97349.04;262644;1093;22809;-74
2021/05/05 05:57:32;;;;;;;3.85;2.25;;;;;;;13.57;53.38;97351.92;262604;1093;22862;-74
2021/05/05 06:02:34;;;;;;;5.20;2.65;;;;;;;13.66;53.42;97355.27;262300;1093;22900;-74
2021/05/05 06:07:38;;;;;;;4.85;2.25;;;;;;;13.77;53.26;97348.25;262662;1093;25540;-74
2021/05/05 06:12:41;;;;;;;3.23;1.97;;;;;;;13.85;52.95;97351.91;262979;1093;25990;-74
2021/05/05 06:17:44;;;;;;;2.55;1.90;;;;;;;13.89;53.15;97357.39;262451;1093;22958;-74
2021/05/05 06:22:47;;;;;;;2.80;1.80;;;;;;;13.95;52.64;97343.34;262507;1098;22791;-75
2021/05/05 06:27:50;;;;;;;7.50;2.70;;;;;;;14.07;52.70;97334.40;262032;1092;26031;-74
2021/05/05 06:32:58;;;;;;;3.00;2.20;;;;;;;14.31;52.46;97320.00;262223;1093;27365;-74
2021/05/05 06:38:05;;;;;;;3.23;2.40;;;;;;;14.58;52.18;97314.05;262224;1093;22775;-74
2021/05/05 06:43:24;;;;;;;3.08;2.15;;;;;;;14.87;51.11;97321.69;262117;1093;25808;-75
2021/05/05 06:48:27;;;;;;;2.63;2.17;;;;;;;15.06;50.28;97309.36;262522;1092;26098;-74
2021/05/05 06:53:29;;;;;;;3.25;2.20;;;;;;;15.30;50.05;97307.52;262293;1093;26158;-74
2021/05/05 06:58:32;;;;;;;3.65;2.30;;;;;;;15.54;49.04;97318.03;262131;1093;24504;-74
2021/05/05 07:03:35;;;;;;;4.45;2.25;;;;;;;15.68;49.17;97322.92;262470;1098;22832;-74
2021/05/05 07:08:38;;;;;;;2.90;2.20;;;;;;;15.86;48.51;97307.05;262473;1093;25868;-74
2021/05/05 07:13:40;;;;;;;3.20;2.00;;;;;;;16.12;47.61;97310.17;262501;1093;26350;-74
2021/05/05 07:18:43;;;;;;;2.20;1.90;;;;;;;16.34;47.69;97314.02;262350;1093;25858;-74
2021/05/05 07:23:47;;;;;;;2.60;1.90;;;;;;;16.43;47.11;97319.96;262294;1093;24279;-74
2021/05/05 07:28:49;;;;;;;4.00;1.90;;;;;;;16.47;46.58;97301.88;262463;1098;22824;-74
2021/05/05 07:33:52;;;;;;;4.00;2.50;;;;;;;16.62;46.73;97307.48;262648;1098;22765;-74
2021/05/05 07:44:40;;;;;;;;;;;;;;;17.19;46.33;97302.88;262850;1093;27782;-74
2021/05/05 07:49:30;;;;;;;3.30;2.05;;;;;;;17.27;45.37;97288.28;262053;1093;25001;-74
2021/05/05 07:54:32;;;;;;;3.00;1.70;;;;;;;17.23;44.13;97294.80;262340;1093;23212;-74
2021/05/05 07:59:35;;;;;;;1.40;1.20;;;;;;;17.04;43.96;97301.93;262646;1098;22794;-73
2021/05/05 08:04:37;;;;;;;1.35;1.25;;;;;;;16.78;45.43;97312.75;265992;1093;23022;-74
2021/05/05 08:09:54;;;;;;;1.50;1.40;;;;;;;16.68;45.60;97301.41;262589;1098;22835;-75
2021/05/05 08:15:04;;;;;;;2.15;1.30;;;;;;;16.69;45.83;97288.66;262173;1098;23072;-75
2021/05/05 08:20:22;;;;;;;1.35;1.25;;;;;;;16.85;45.90;97283.09;262432;1093;26276;-74
2021/05/05 08:25:36;;;;;;;2.20;1.45;;;;;;;16.92;46.38;97270.47;262389;1098;23363;-74
2021/05/05 08:30:39;;;;;;;4.05;1.10;;;;;;;16.98;46.07;97270.16;262702;1098;22838;-74
2021/05/05 08:35:43;;;;;;;2.25;1.65;;;;;;;16.87;45.74;97265.37;262204;1098;22907;-73
2021/05/05 08:40:47;;;;;;;1.70;1.60;;;;;;;16.72;46.25;97253.58;262419;1098;24055;-75
2021/05/05 08:45:56;;;;;;;1.53;1.40;;;;;;;16.81;46.56;97255.23;262343;1092;26076;-75
2021/05/05 08:51:06;;;;;;;2.00;1.50;;;;;;;16.83;45.98;97252.92;262537;1098;23341;-75
2021/05/05 08:56:10;;;;;;;1.70;1.60;;;;;;;16.75;45.46;97252.06;262394;1098;23600;-75
2021/05/05 09:01:14;;;;;;;2.80;1.90;;;;;;;16.55;45.20;97252.19;262463;1098;22757;-75
2021/05/05 09:06:18;;;;;;;2.15;1.50;;;;;;;16.35;46.29;97254.20;262578;1093;25507;-77
2021/05/05 09:11:21;;;;;;;1.40;1.30;;;;;;;16.21;46.35;97251.29;262251;1098;22902;-75
2021/05/05 09:16:27;;;;;;;1.75;1.60;;;;;;;16.13;47.02;97244.22;262259;1093;22737;-75
2021/05/05 09:21:31;;;;;;;2.33;1.80;;;;;;;16.08;47.37;97248.02;262518;1093;22809;-75
2021/05/05 09:26:36;;;;;;;2.30;1.60;;;;;;;16.01;47.18;97247.91;262370;1098;22784;-75
2021/05/05 09:31:40;;;;;;;1.50;1.40;;;;;;;15.97;48.14;97247.06;262229;1093;22825;-75
2021/05/05 09:37:04;;;;;;;2.40;1.80;;;;;;;15.93;48.40;97249.69;262331;1093;25862;-76
2021/05/05 09:42:18;;;;;;;1.75;1.35;;;;;;;15.88;48.64;97264.28;262238;1093;27243;-76
2021/05/05 09:47:22;;;;;;;2.50;1.40;;;;;;;16.01;48.97;97259.47;262485;1093;26238;-75
2021/05/05 09:52:29;;;;;;;1.85;1.35;;;;;;;16.19;48.86;97259.76;262550;1093;22735;-76
2021/05/05 09:57:34;;;;;;;2.70;2.10;;;;;;;16.41;48.98;97260.07;262557;1098;23653;-75
2021/05/05 10:02:56;;;;;;;2.45;2.25;;;;;;;16.49;48.44;97266.38;262830;1098;22768;-75
2021/05/05 10:08:09;;;;;;;3.00;2.20;;;;;;;16.46;49.01;97261.70;263209;1098;22731;-75
2021/05/05 10:13:12;;;;;;;2.47;2.27;;;;;;;16.38;49.30;97283.22;269873;1093;22552;-75
2021/05/05 10:18:15;;;;;;;3.93;3.40;;;;;;;15.62;50.96;97308.14;266858;1093;23203;-75
2021/05/05 10:23:25;;;;;;;;;;;;;;;14.57;53.12;97326.75;262550;1093;22740;-75
2021/05/05 10:28:41;;;;;;;3.20;2.25;;;;;;;13.84;54.66;97334.20;262739;1098;26050;-74
2021/05/05 10:33:46;;;;;;;2.40;2.10;;;;;;;13.20;56.68;97343.96;262466;1093;22741;-75
2021/05/05 10:38:52;;;;;;;2.60;2.07;;;;;;;12.65;59.00;97342.36;262445;1093;26169;-76
2021/05/05 10:44:02;;;;;;;1.87;1.70;;;;;;;12.25;59.53;97343.00;262572;1093;26095;-75
2021/05/05 10:49:11;;;;;;;2.80;2.00;;;;;;;11.86;60.17;97349.73;263317;1093;23472;-75
2021/05/05 10:54:20;;;;;;;2.77;1.60;;;;;;;11.54;61.13;97350.20;262466;1098;23295;-75
2021/05/05 10:59:26;;;;;;;5.00;1.40;;;;;;;11.38;61.35;97359.95;262814;1093;26214;-75
2021/05/05 11:05:08;;;;;;;1.50;1.10;;;;;;;11.24;61.60;97373.61;262340;1093;22803;-75
2021/05/05 11:10:40;;;;;;;2.13;1.30;;;;;;;11.11;61.90;97399.56;262315;1098;22916;-76
2021/05/05 11:15:57;;;;;;;3.53;1.47;;;;;;;10.90;62.17;97402.22;262295;1093;22753;-76
2021/05/05 11:21:18;;;;;;;1.33;0.50;;;;;;;10.78;62.59;97421.64;262855;1098;23560;-75
2021/05/05 11:26:32;;;;;;;1.80;0.80;;;;;;;10.63;63.88;97428.31;262831;1093;24070;-75
2021/05/05 11:31:47;;;;;;;0.80;0.50;;;;;;;10.32;65.54;97436.58;269635;1098;22562;-76
2021/05/05 11:36:55;;;;;;;1.97;0.80;;;;;;;9.94;66.25;97462.14;263121;1098;22757;-74
2021/05/05 11:42:04;;;;;;;1.77;0.97;;;;;;;9.60;68.15;97445.00;262617;1093;25925;-75
2021/05/05 11:47:32;;;;;;;1.65;0.88;;;;;;;9.34;69.12;97459.11;262739;1098;24250;-75
2021/05/05 11:52:39;;;;;;;2.75;1.15;;;;;;;9.14;70.68;97462.39;267809;1098;23385;-74
2021/05/05 11:57:48;;;;;;;4.53;1.00;;;;;;;8.98;71.68;97465.49;262692;1093;23358;-75
2021/05/05 12:02:55;;;;;;;1.70;0.90;;;;;;;8.85;72.10;97440.45;263218;1098;22741;-76
2021/05/05 12:08:16;;;;;;;2.00;0.80;;;;;;;8.64;72.92;97487.50;262222;1098;22741;-76
2021/05/05 12:13:31;;;;;;;1.70;1.00;;;;;;;8.50;73.57;97479.57;262882;1098;24383;-80
2021/05/05 12:18:44;;;;;;;2.00;1.10;;;;;;;8.50;74.31;97474.23;264616;1093;25858;-80
2021/05/05 12:23:49;;;;;;;2.40;1.20;;;;;;;8.54;74.55;97467.97;263762;1098;23954;-79
2021/05/05 12:28:59;;;;;;;1.87;1.00;;;;;;;8.54;75.16;97441.28;264130;1093;22949;-79
2021/05/05 12:34:05;;;;;;;1.93;0.83;;;;;;;8.59;75.35;97434.23;263845;1093;22714;-79
2021/05/05 12:39:13;;;;;;;1.30;0.90;;;;;;;8.59;75.32;97476.94;264865;1098;22775;-80
2021/05/05 12:44:16;;;;;;;1.57;1.23;;;;;;;8.59;75.12;97471.60;263082;1098;22755;-80
2021/05/05 12:49:19;;;;;;;2.80;1.45;;;;;;;8.62;75.42;97473.65;263607;1093;22800;-80
2021/05/05 12:54:29;;;;;;;2.13;1.77;;;;;;;8.60;75.09;97463.28;263715;1098;22734;-79
2021/05/05 12:59:34;;;;;;;5.05;1.90;;;;;;;8.64;75.79;97450.13;262873;1093;22881;-78
2021/05/05 13:04:43;;;;;;;3.33;2.10;;;;;;;8.66;75.83;97479.95;262390;1098;23448;-77
2021/05/05 13:34:07;;;;;;;3.53;2.10;;;;;;;8.71;77.38;97459.25;261135;1098;23528;-77
2021/05/05 13:39:26;;;;;;;3.03;2.50;;;;;;;8.81;78.10;97428.81;261434;1096;22756;-77
2021/05/05 16:57:05;;;;;;;9.23;5.03;;;;;;;8.46;76.72;97395.88;261633;1101;22958;-73
2021/05/05 18:20:48;;;;;;;5.30;2.77;;;;;;;8.12;76.50;97621.32;261346;1101;22769;-73
2021/05/05 23:27:18;;;;;;;6.18;3.28;;;;;;;3.74;82.34;97912.97;261324;1101;22759;-71
